Terminal Aerodrome Forecast
Issued by NWS

Home | Current Version | Previous Version | Text Only | Print | Product List | Glossary On
Versions: 1 2 3 4 5 6 7 8 9 10 11 12 13 14 15 16 17 18 19 20 21 22 23 24 25 26 27 28 29 30 31 32 33 34 35 36 37 38 39 40 41 42 43 44 45 46 47 48 49 50
272
FTUS43 KMKX 301434 AAA
TAFUES
TAF AMD
KUES 301434Z 3015/0112 09006KT P6SM OVC035
     FM301800 08009KT 6SM -RA SCT015 OVC035
     FM302100 05010G20KT 3SM -RA OVC015
     FM010400 04012KT 5SM -SHRA OVC008
     FM010600 04015KT P6SM OVC010 PROB30 0106/0110 4SM -SHRA OVC007=

USA.gov is the U.S. government's official web portal to all federal, state and local government web resources and services.